X  Blizu METAR Podaci o vazduhoplovstvu     LBPD Plovdiv International Airport
Temperatura
15°C Temperatura
9°C Tačka Rose
68% Vlaga



Vetar
3 M/S
6 MPS
10 KM/S
5 Čvorovi



280°
Z
Trenutna situacija

Delimično oblačno Delimično oblačno
Vazdušni pritisak 1012.87 (hPa) - 29.91 (inHg)
Vidljivost 6 (Milje) - 9.7 (km)
Aerodrom
Aerodromski kod. LBPD

Lokacija: Plovdiv International Airport
Udaljenost: 14 (km)

Metar:
LBPD 251530Z AUTO 28005KT 9999 FEW072/// BKN110/// 15/09 Q1013 NOSIG

Vreme: 25-02-2024 17:30 EET